sensor_id;sensor_type;location;lat;lon;timestamp;temperature;humidity
67603;DHT22;54417;47.454;18.918;2024-02-26T00:00:57;9.70;95.89
67603;DHT22;54417;47.454;18.918;2024-02-26T00:06:01;9.57;96.18
67603;DHT22;54417;47.454;18.918;2024-02-26T00:11:09;9.57;96.37
67603;DHT22;54417;47.454;18.918;2024-02-26T00:16:18;9.64;96.25
67603;DHT22;54417;47.454;18.918;2024-02-26T00:21:22;9.62;96.40
67603;DHT22;54417;47.454;18.918;2024-02-26T00:26:27;9.57;96.49
67603;DHT22;54417;47.454;18.918;2024-02-26T00:31:36;9.58;96.47
67603;DHT22;54417;47.454;18.918;2024-02-26T00:36:45;9.54;96.42
67603;DHT22;54417;47.454;18.918;2024-02-26T00:41:55;9.58;96.55
67603;DHT22;54417;47.454;18.918;2024-02-26T00:47:04;9.64;96.35
67603;DHT22;54417;47.454;18.918;2024-02-26T00:52:13;9.47;96.55
67603;DHT22;54417;47.454;18.918;2024-02-26T00:57:23;9.51;96.65
67603;DHT22;54417;47.454;18.918;2024-02-26T01:02:32;9.51;96.61
67603;DHT22;54417;47.454;18.918;2024-02-26T01:07:41;9.52;96.60
67603;DHT22;54417;47.454;18.918;2024-02-26T01:12:51;9.44;96.57
67603;DHT22;54417;47.454;18.918;2024-02-26T01:18:00;9.40;96.65
67603;DHT22;54417;47.454;18.918;2024-02-26T01:23:09;9.24;97.48
67603;DHT22;54417;47.454;18.918;2024-02-26T01:28:14;9.26;97.36
67603;DHT22;54417;47.454;18.918;2024-02-26T01:33:18;9.37;97.23
67603;DHT22;54417;47.454;18.918;2024-02-26T01:38:22;9.31;97.24
67603;DHT22;54417;47.454;18.918;2024-02-26T01:43:32;9.43;97.12
67603;DHT22;54417;47.454;18.918;2024-02-26T01:48:41;9.30;97.37
67603;DHT22;54417;47.454;18.918;2024-02-26T01:53:46;9.26;97.61
67603;DHT22;54417;47.454;18.918;2024-02-26T01:58:55;9.19;97.57
67603;DHT22;54417;47.454;18.918;2024-02-26T02:04:00;9.23;97.65
67603;DHT22;54417;47.454;18.918;2024-02-26T02:09:03;9.20;97.65
67603;DHT22;54417;47.454;18.918;2024-02-26T02:14:15;9.20;97.61
67603;DHT22;54417;47.454;18.918;2024-02-26T02:19:24;9.12;97.61
67603;DHT22;54417;47.454;18.918;2024-02-26T02:24:34;9.15;97.57
67603;DHT22;54417;47.454;18.918;2024-02-26T02:29:43;9.12;97.69
67603;DHT22;54417;47.454;18.918;2024-02-26T02:34:47;9.06;97.65
67603;DHT22;54417;47.454;18.918;2024-02-26T02:39:57;9.08;97.69
67603;DHT22;54417;47.454;18.918;2024-02-26T02:45:07;9.02;97.77
67603;DHT22;54417;47.454;18.918;2024-02-26T02:50:11;9.06;97.93
67603;DHT22;54417;47.454;18.918;2024-02-26T02:55:21;9.00;98.24
67603;DHT22;54417;47.454;18.918;2024-02-26T03:00:29;9.09;97.86
67603;DHT22;54417;47.454;18.918;2024-02-26T03:05:38;9.10;97.67
67603;DHT22;54417;47.454;18.918;2024-02-26T03:10:48;9.10;97.78
67603;DHT22;54417;47.454;18.918;2024-02-26T03:15:57;9.15;97.76
67603;DHT22;54417;47.454;18.918;2024-02-26T03:21:01;9.08;97.87
67603;DHT22;54417;47.454;18.918;2024-02-26T03:26:11;9.10;97.79
67603;DHT22;54417;47.454;18.918;2024-02-26T03:31:22;9.00;97.71
67603;DHT22;54417;47.454;18.918;2024-02-26T03:36:30;8.99;97.78
67603;DHT22;54417;47.454;18.918;2024-02-26T03:41:40;8.95;97.80
67603;DHT22;54417;47.454;18.918;2024-02-26T03:46:44;8.95;97.79
67603;DHT22;54417;47.454;18.918;2024-02-26T03:51:48;8.92;98.16
67603;DHT22;54417;47.454;18.918;2024-02-26T03:56:58;8.89;98.05
67603;DHT22;54417;47.454;18.918;2024-02-26T04:02:03;8.58;97.82
67603;DHT22;54417;47.454;18.918;2024-02-26T04:07:14;8.45;98.18
67603;DHT22;54417;47.454;18.918;2024-02-26T04:12:26;8.37;98.57
67603;DHT22;54417;47.454;18.918;2024-02-26T04:17:36;8.42;98.60
67603;DHT22;54417;47.454;18.918;2024-02-26T04:22:40;8.31;98.79
67603;DHT22;54417;47.454;18.918;2024-02-26T04:27:45;8.33;99.29
67603;DHT22;54417;47.454;18.918;2024-02-26T04:32:53;8.33;98.70
67603;DHT22;54417;47.454;18.918;2024-02-26T04:38:02;8.30;99.29
67603;DHT22;54417;47.454;18.918;2024-02-26T04:43:09;8.36;99.62
67603;DHT22;54417;47.454;18.918;2024-02-26T04:48:18;8.30;99.53
67603;DHT22;54417;47.454;18.918;2024-02-26T04:53:27;8.24;99.63
67603;DHT22;54417;47.454;18.918;2024-02-26T04:58:37;8.19;99.68
67603;DHT22;54417;47.454;18.918;2024-02-26T05:03:41;8.27;99.82
67603;DHT22;54417;47.454;18.918;2024-02-26T05:08:50;8.34;99.99
67603;DHT22;54417;47.454;18.918;2024-02-26T05:14:00;8.40;99.99
67603;DHT22;54417;47.454;18.918;2024-02-26T05:19:09;8.38;99.99
67603;DHT22;54417;47.454;18.918;2024-02-26T05:24:13;8.45;99.99
67603;DHT22;54417;47.454;18.918;2024-02-26T05:29:19;8.51;99.77
67603;DHT22;54417;47.454;18.918;2024-02-26T05:34:28;8.44;99.99
67603;DHT22;54417;47.454;18.918;2024-02-26T05:39:37;8.44;99.99
67603;DHT22;54417;47.454;18.918;2024-02-26T05:44:43;8.50;99.99
67603;DHT22;54417;47.454;18.918;2024-02-26T05:49:52;8.62;99.99
67603;DHT22;54417;47.454;18.918;2024-02-26T05:55:03;8.52;99.99
67603;DHT22;54417;47.454;18.918;2024-02-26T06:00:09;8.58;99.99
67603;DHT22;54417;47.454;18.918;2024-02-26T06:05:22;8.67;99.99
67603;DHT22;54417;47.454;18.918;2024-02-26T06:10:25;8.72;99.99
67603;DHT22;54417;47.454;18.918;2024-02-26T06:15:36;8.81;99.73
67603;DHT22;54417;47.454;18.918;2024-02-26T06:20:40;8.88;99.60
67603;DHT22;54417;47.454;18.918;2024-02-26T06:25:48;8.93;99.46
67603;DHT22;54417;47.454;18.918;2024-02-26T06:30:53;9.09;99.29
67603;DHT22;54417;47.454;18.918;2024-02-26T06:36:03;9.19;99.10
67603;DHT22;54417;47.454;18.918;2024-02-26T06:41:12;9.34;98.96
67603;DHT22;54417;47.454;18.918;2024-02-26T06:46:22;9.47;98.72
67603;DHT22;54417;47.454;18.918;2024-02-26T06:51:31;9.73;98.15
67603;DHT22;54417;47.454;18.918;2024-02-26T06:56:40;9.94;97.49
67603;DHT22;54417;47.454;18.918;2024-02-26T07:01:53;9.98;97.00
67603;DHT22;54417;47.454;18.918;2024-02-26T07:06:57;10.05;96.76
67603;DHT22;54417;47.454;18.918;2024-02-26T07:12:06;10.36;95.46
67603;DHT22;54417;47.454;18.918;2024-02-26T07:17:12;10.45;94.85
67603;DHT22;54417;47.454;18.918;2024-02-26T07:22:15;10.49;93.89
67603;DHT22;54417;47.454;18.918;2024-02-26T07:27:24;10.54;94.16
67603;DHT22;54417;47.454;18.918;2024-02-26T07:32:37;10.81;93.74
67603;DHT22;54417;47.454;18.918;2024-02-26T07:37:41;11.08;92.78
67603;DHT22;54417;47.454;18.918;2024-02-26T07:42:45;11.33;91.52
67603;DHT22;54417;47.454;18.918;2024-02-26T07:47:50;11.55;90.22
67603;DHT22;54417;47.454;18.918;2024-02-26T07:52:59;11.69;90.08
67603;DHT22;54417;47.454;18.918;2024-02-26T07:58:03;11.77;90.07
67603;DHT22;54417;47.454;18.918;2024-02-26T08:03:20;12.11;89.49
67603;DHT22;54417;47.454;18.918;2024-02-26T08:08:28;12.22;88.87
67603;DHT22;54417;47.454;18.918;2024-02-26T08:13:33;12.34;87.99
67603;DHT22;54417;47.454;18.918;2024-02-26T08:18:44;12.04;87.82
67603;DHT22;54417;47.454;18.918;2024-02-26T08:23:48;12.13;88.80
67603;DHT22;54417;47.454;18.918;2024-02-26T08:28:57;12.16;88.90
67603;DHT22;54417;47.454;18.918;2024-02-26T08:34:09;12.31;87.84
67603;DHT22;54417;47.454;18.918;2024-02-26T08:39:18;12.29;87.41
67603;DHT22;54417;47.454;18.918;2024-02-26T08:44:28;12.28;87.72
67603;DHT22;54417;47.454;18.918;2024-02-26T08:49:33;12.38;87.08
67603;DHT22;54417;47.454;18.918;2024-02-26T08:54:41;12.29;88.19
67603;DHT22;54417;47.454;18.918;2024-02-26T08:59:50;12.28;87.80
67603;DHT22;54417;47.454;18.918;2024-02-26T09:05:00;12.24;87.95
67603;DHT22;54417;47.454;18.918;2024-02-26T09:10:09;12.29;87.96
67603;DHT22;54417;47.454;18.918;2024-02-26T09:15:18;12.41;87.82
67603;DHT22;54417;47.454;18.918;2024-02-26T09:20:24;12.60;86.77
67603;DHT22;54417;47.454;18.918;2024-02-26T09:25:33;12.65;86.82
67603;DHT22;54417;47.454;18.918;2024-02-26T09:30:43;12.69;86.72
67603;DHT22;54417;47.454;18.918;2024-02-26T09:35:53;12.75;86.10
67603;DHT22;54417;47.454;18.918;2024-02-26T09:40:58;12.92;86.23
67603;DHT22;54417;47.454;18.918;2024-02-26T09:46:08;13.07;85.76
67603;DHT22;54417;47.454;18.918;2024-02-26T09:51:14;13.21;85.47
67603;DHT22;54417;47.454;18.918;2024-02-26T09:56:23;13.16;84.35
67603;DHT22;54417;47.454;18.918;2024-02-26T10:01:27;13.10;84.75
67603;DHT22;54417;47.454;18.918;2024-02-26T10:06:41;13.16;85.11
67603;DHT22;54417;47.454;18.918;2024-02-26T10:11:52;13.66;83.38
67603;DHT22;54417;47.454;18.918;2024-02-26T10:17:00;13.81;82.64
67603;DHT22;54417;47.454;18.918;2024-02-26T10:22:06;14.03;81.47
67603;DHT22;54417;47.454;18.918;2024-02-26T10:27:15;14.14;82.31
67603;DHT22;54417;47.454;18.918;2024-02-26T10:32:24;14.43;81.17
67603;DHT22;54417;47.454;18.918;2024-02-26T10:37:34;14.84;81.72
67603;DHT22;54417;47.454;18.918;2024-02-26T10:42:43;15.03;78.72
67603;DHT22;54417;47.454;18.918;2024-02-26T10:47:53;14.80;77.27
67603;DHT22;54417;47.454;18.918;2024-02-26T10:53:05;14.72;78.01
67603;DHT22;54417;47.454;18.918;2024-02-26T10:58:16;14.70;79.20
67603;DHT22;54417;47.454;18.918;2024-02-26T11:03:26;14.98;77.69
67603;DHT22;54417;47.454;18.918;2024-02-26T11:08:32;15.29;74.88
67603;DHT22;54417;47.454;18.918;2024-02-26T11:13:42;15.57;74.53
67603;DHT22;54417;47.454;18.918;2024-02-26T11:18:55;15.57;74.35
67603;DHT22;54417;47.454;18.918;2024-02-26T11:24:07;15.71;74.63
67603;DHT22;54417;47.454;18.918;2024-02-26T11:29:20;15.81;75.48
67603;DHT22;54417;47.454;18.918;2024-02-26T11:34:29;15.91;74.84
67603;DHT22;54417;47.454;18.918;2024-02-26T11:39:35;15.94;75.16
67603;DHT22;54417;47.454;18.918;2024-02-26T11:44:44;15.81;75.26
67603;DHT22;54417;47.454;18.918;2024-02-26T11:49:48;15.87;75.17
67603;DHT22;54417;47.454;18.918;2024-02-26T11:54:59;16.28;72.75
67603;DHT22;54417;47.454;18.918;2024-02-26T12:00:11;16.52;71.98
67603;DHT22;54417;47.454;18.918;2024-02-26T12:05:17;16.77;72.03
67603;DHT22;54417;47.454;18.918;2024-02-26T12:10:31;16.87;71.16
67603;DHT22;54417;47.454;18.918;2024-02-26T12:15:39;16.84;71.17
67603;DHT22;54417;47.454;18.918;2024-02-26T12:20:58;16.77;72.46
67603;DHT22;54417;47.454;18.918;2024-02-26T12:26:08;16.86;71.91
67603;DHT22;54417;47.454;18.918;2024-02-26T12:31:18;16.84;72.29
67603;DHT22;54417;47.454;18.918;2024-02-26T12:36:22;17.00;70.62
67603;DHT22;54417;47.454;18.918;2024-02-26T12:41:27;16.77;71.25
67603;DHT22;54417;47.454;18.918;2024-02-26T12:46:37;16.36;71.53
67603;DHT22;54417;47.454;18.918;2024-02-26T12:51:47;16.49;73.06
67603;DHT22;54417;47.454;18.918;2024-02-26T12:56:52;16.46;72.89
67603;DHT22;54417;47.454;18.918;2024-02-26T13:02:01;16.49;72.86
67603;DHT22;54417;47.454;18.918;2024-02-26T13:07:14;16.67;72.65
67603;DHT22;54417;47.454;18.918;2024-02-26T13:12:24;17.04;71.98
67603;DHT22;54417;47.454;18.918;2024-02-26T13:17:33;17.31;69.76
67603;DHT22;54417;47.454;18.918;2024-02-26T13:22:37;17.46;70.32
67603;DHT22;54417;47.454;18.918;2024-02-26T13:27:42;17.15;68.61
67603;DHT22;54417;47.454;18.918;2024-02-26T13:32:51;16.77;69.80
67603;DHT22;54417;47.454;18.918;2024-02-26T13:38:00;16.28;72.70
67603;DHT22;54417;47.454;18.918;2024-02-26T13:43:11;16.24;72.10
67603;DHT22;54417;47.454;18.918;2024-02-26T13:48:15;16.24;68.50
67603;DHT22;54417;47.454;18.918;2024-02-26T13:53:19;16.22;68.54
67603;DHT22;54417;47.454;18.918;2024-02-26T13:58:32;16.18;70.06
67603;DHT22;54417;47.454;18.918;2024-02-26T14:03:41;15.93;69.67
67603;DHT22;54417;47.454;18.918;2024-02-26T14:08:50;15.57;69.72
67603;DHT22;54417;47.454;18.918;2024-02-26T14:13:55;15.36;71.00
67603;DHT22;54417;47.454;18.918;2024-02-26T14:19:04;15.13;71.22
67603;DHT22;54417;47.454;18.918;2024-02-26T14:24:08;15.01;72.31
67603;DHT22;54417;47.454;18.918;2024-02-26T14:29:13;14.98;72.34
67603;DHT22;54417;47.454;18.918;2024-02-26T14:34:23;14.92;74.01
67603;DHT22;54417;47.454;18.918;2024-02-26T14:39:27;15.05;74.25
67603;DHT22;54417;47.454;18.918;2024-02-26T14:44:38;15.09;75.00
67603;DHT22;54417;47.454;18.918;2024-02-26T14:49:42;15.06;74.73
67603;DHT22;54417;47.454;18.918;2024-02-26T14:54:51;14.81;75.78
67603;DHT22;54417;47.454;18.918;2024-02-26T15:00:01;14.59;76.49
67603;DHT22;54417;47.454;18.918;2024-02-26T15:05:13;14.48;77.15
67603;DHT22;54417;47.454;18.918;2024-02-26T15:10:23;14.23;77.46
67603;DHT22;54417;47.454;18.918;2024-02-26T15:15:34;14.02;77.47
67603;DHT22;54417;47.454;18.918;2024-02-26T15:20:44;13.78;78.28
67603;DHT22;54417;47.454;18.918;2024-02-26T15:25:53;13.48;79.31
67603;DHT22;54417;47.454;18.918;2024-02-26T15:31:03;13.34;79.42
67603;DHT22;54417;47.454;18.918;2024-02-26T15:36:12;13.11;79.99
67603;DHT22;54417;47.454;18.918;2024-02-26T15:41:21;12.97;80.81
67603;DHT22;54417;47.454;18.918;2024-02-26T15:46:31;12.83;81.44
67603;DHT22;54417;47.454;18.918;2024-02-26T15:51:40;12.69;82.77
67603;DHT22;54417;47.454;18.918;2024-02-26T15:56:49;12.51;83.19
67603;DHT22;54417;47.454;18.918;2024-02-26T16:01:59;12.22;84.05
67603;DHT22;54417;47.454;18.918;2024-02-26T16:07:17;11.86;85.29
67603;DHT22;54417;47.454;18.918;2024-02-26T16:12:27;11.42;87.21
67603;DHT22;54417;47.454;18.918;2024-02-26T16:17:47;10.98;89.16
67603;DHT22;54417;47.454;18.918;2024-02-26T16:22:57;10.66;90.04
67603;DHT22;54417;47.454;18.918;2024-02-26T16:28:04;10.39;90.82
67603;DHT22;54417;47.454;18.918;2024-02-26T16:33:10;10.22;91.38
67603;DHT22;54417;47.454;18.918;2024-02-26T16:38:19;10.12;91.62
67603;DHT22;54417;47.454;18.918;2024-02-26T16:43:28;9.98;92.48
67603;DHT22;54417;47.454;18.918;2024-02-26T16:48:34;9.85;92.89
67603;DHT22;54417;47.454;18.918;2024-02-26T16:53:39;9.74;93.34
67603;DHT22;54417;47.454;18.918;2024-02-26T16:58:48;9.67;93.29
67603;DHT22;54417;47.454;18.918;2024-02-26T17:03:58;9.48;94.15
67603;DHT22;54417;47.454;18.918;2024-02-26T17:09:07;9.30;94.55
67603;DHT22;54417;47.454;18.918;2024-02-26T17:14:16;9.16;95.04
67603;DHT22;54417;47.454;18.918;2024-02-26T17:19:22;9.08;95.61
67603;DHT22;54417;47.454;18.918;2024-02-26T17:24:31;9.02;95.27
67603;DHT22;54417;47.454;18.918;2024-02-26T17:29:35;8.96;95.55
67603;DHT22;54417;47.454;18.918;2024-02-26T17:34:46;8.88;95.79
67603;DHT22;54417;47.454;18.918;2024-02-26T17:39:51;8.81;95.80
67603;DHT22;54417;47.454;18.918;2024-02-26T17:45:01;8.72;95.75
67603;DHT22;54417;47.454;18.918;2024-02-26T17:50:11;8.57;96.66
67603;DHT22;54417;47.454;18.918;2024-02-26T17:55:20;8.54;97.03
67603;DHT22;54417;47.454;18.918;2024-02-26T18:00:29;8.44;97.09
67603;DHT22;54417;47.454;18.918;2024-02-26T18:05:41;8.42;96.91
67603;DHT22;54417;47.454;18.918;2024-02-26T18:10:45;8.29;97.05
67603;DHT22;54417;47.454;18.918;2024-02-26T18:15:54;8.20;97.37
67603;DHT22;54417;47.454;18.918;2024-02-26T18:21:01;8.06;97.68
67603;DHT22;54417;47.454;18.918;2024-02-26T18:26:10;8.04;97.60
67603;DHT22;54417;47.454;18.918;2024-02-26T18:31:20;8.14;97.76
67603;DHT22;54417;47.454;18.918;2024-02-26T18:36:30;8.16;97.96
67603;DHT22;54417;47.454;18.918;2024-02-26T18:41:34;8.23;97.84
67603;DHT22;54417;47.454;18.918;2024-02-26T18:46:44;8.23;97.78
67603;DHT22;54417;47.454;18.918;2024-02-26T18:51:54;8.17;97.54
67603;DHT22;54417;47.454;18.918;2024-02-26T18:57:03;8.07;97.32
67603;DHT22;54417;47.454;18.918;2024-02-26T19:02:12;7.83;97.00
67603;DHT22;54417;47.454;18.918;2024-02-26T19:07:17;7.61;97.38
67603;DHT22;54417;47.454;18.918;2024-02-26T19:12:21;7.38;97.95
67603;DHT22;54417;47.454;18.918;2024-02-26T19:17:27;7.27;98.11
67603;DHT22;54417;47.454;18.918;2024-02-26T19:22:32;7.13;98.62
67603;DHT22;54417;47.454;18.918;2024-02-26T19:27:36;7.07;99.08
67603;DHT22;54417;47.454;18.918;2024-02-26T19:32:39;7.00;98.82
67603;DHT22;54417;47.454;18.918;2024-02-26T19:37:45;6.86;98.61
67603;DHT22;54417;47.454;18.918;2024-02-26T19:42:54;6.86;98.51
67603;DHT22;54417;47.454;18.918;2024-02-26T19:47:57;6.75;98.35
67603;DHT22;54417;47.454;18.918;2024-02-26T19:53:03;6.56;98.14
67603;DHT22;54417;47.454;18.918;2024-02-26T19:58:12;6.46;98.66
67603;DHT22;54417;47.454;18.918;2024-02-26T20:03:16;6.38;99.69
67603;DHT22;54417;47.454;18.918;2024-02-26T20:08:28;6.49;99.99
67603;DHT22;54417;47.454;18.918;2024-02-26T20:13:36;6.50;99.99
67603;DHT22;54417;47.454;18.918;2024-02-26T20:18:40;6.46;99.99
67603;DHT22;54417;47.454;18.918;2024-02-26T20:23:45;6.48;99.99
67603;DHT22;54417;47.454;18.918;2024-02-26T20:28:55;6.64;99.99
67603;DHT22;54417;47.454;18.918;2024-02-26T20:34:03;6.86;99.99
67603;DHT22;54417;47.454;18.918;2024-02-26T20:39:09;7.01;99.99
67603;DHT22;54417;47.454;18.918;2024-02-26T20:44:13;6.99;99.55
67603;DHT22;54417;47.454;18.918;2024-02-26T20:49:22;7.01;99.47
67603;DHT22;54417;47.454;18.918;2024-02-26T20:54:32;7.13;99.39
67603;DHT22;54417;47.454;18.918;2024-02-26T20:59:37;7.25;99.42
67603;DHT22;54417;47.454;18.918;2024-02-26T21:05:09;7.36;99.27
67603;DHT22;54417;47.454;18.918;2024-02-26T21:10:19;7.50;98.93
67603;DHT22;54417;47.454;18.918;2024-02-26T21:15:26;7.51;98.46
67603;DHT22;54417;47.454;18.918;2024-02-26T21:20:30;7.44;97.78
67603;DHT22;54417;47.454;18.918;2024-02-26T21:25:42;7.65;97.87
67603;DHT22;54417;47.454;18.918;2024-02-26T21:30:50;7.55;97.62
67603;DHT22;54417;47.454;18.918;2024-02-26T21:35:58;7.54;97.51
67603;DHT22;54417;47.454;18.918;2024-02-26T21:41:09;7.58;97.28
67603;DHT22;54417;47.454;18.918;2024-02-26T21:46:18;7.63;97.21
67603;DHT22;54417;47.454;18.918;2024-02-26T21:51:27;7.56;97.28
67603;DHT22;54417;47.454;18.918;2024-02-26T21:56:37;7.65;97.86
67603;DHT22;54417;47.454;18.918;2024-02-26T22:01:47;7.86;97.62
67603;DHT22;54417;47.454;18.918;2024-02-26T22:06:55;7.97;97.94
67603;DHT22;54417;47.454;18.918;2024-02-26T22:12:00;8.07;97.61
67603;DHT22;54417;47.454;18.918;2024-02-26T22:17:09;7.99;97.75
67603;DHT22;54417;47.454;18.918;2024-02-26T22:22:18;8.06;97.65
67603;DHT22;54417;47.454;18.918;2024-02-26T22:27:29;7.85;97.67
67603;DHT22;54417;47.454;18.918;2024-02-26T22:32:32;7.85;97.66
67603;DHT22;54417;47.454;18.918;2024-02-26T22:37:41;7.87;97.63
67603;DHT22;54417;47.454;18.918;2024-02-26T22:42:51;7.93;97.76
67603;DHT22;54417;47.454;18.918;2024-02-26T22:47:58;7.97;97.89
67603;DHT22;54417;47.454;18.918;2024-02-26T22:53:02;7.99;97.76
67603;DHT22;54417;47.454;18.918;2024-02-26T22:58:12;7.99;97.10
67603;DHT22;54417;47.454;18.918;2024-02-26T23:03:16;7.93;97.04
67603;DHT22;54417;47.454;18.918;2024-02-26T23:08:25;7.97;97.95
67603;DHT22;54417;47.454;18.918;2024-02-26T23:13:35;8.21;98.66
67603;DHT22;54417;47.454;18.918;2024-02-26T23:18:46;8.42;99.24
67603;DHT22;54417;47.454;18.918;2024-02-26T23:23:49;8.75;99.92
67603;DHT22;54417;47.454;18.918;2024-02-26T23:28:56;9.10;99.75
67603;DHT22;54417;47.454;18.918;2024-02-26T23:33:59;9.15;99.27
67603;DHT22;54417;47.454;18.918;2024-02-26T23:39:08;9.12;98.96
67603;DHT22;54417;47.454;18.918;2024-02-26T23:44:18;8.96;98.80
67603;DHT22;54417;47.454;18.918;2024-02-26T23:49:27;8.72;98.32
67603;DHT22;54417;47.454;18.918;2024-02-26T23:54:36;8.55;98.44
67603;DHT22;54417;47.454;18.918;2024-02-26T23:59:48;8.27;98.16
